Time;durP1;ratioP1;P1;durP2;ratioP2;P2;SDS_P1;SDS_P2;PMS_P1;PMS_P2;Temp;Humidity;BMP_temperature;BMP_pressure;BME280_temperature;BME280_humidity;BME280_pressure;Samples;Min_cycle;Max_cycle;Signal;HPM_P1;HPM_P2
2022/05/09 00:00:16;;;;;;;8.58;5.58;;;;;;;13.46;67.66;99973.47;1734369;82;21076;-77
2022/05/09 00:02:43;;;;;;;9.25;6.05;;;;;;;13.45;67.47;99970.41;1734108;82;21061;-81
2022/05/09 00:05:13;;;;;;;9.70;6.20;;;;;;;13.45;67.62;99965.13;1731256;82;21069;-77
2022/05/09 00:07:40;;;;;;;11.10;5.85;;;;;;;13.45;67.67;99968.66;1738597;82;21113;-77
2022/05/09 00:10:10;;;;;;;10.45;5.40;;;;;;;13.43;67.44;99971.83;1738777;82;21180;-77
2022/05/09 00:12:37;;;;;;;5.97;4.97;;;;;;;13.41;67.44;99983.36;1738554;82;21085;-78
2022/05/09 00:15:06;;;;;;;10.80;5.50;;;;;;;13.37;67.35;99982.16;1739020;82;21010;-81
2022/05/09 00:17:34;;;;;;;9.88;5.40;;;;;;;13.35;67.18;99976.55;1738626;82;21015;-81
2022/05/09 00:20:01;;;;;;;10.60;4.72;;;;;;;13.32;67.10;99976.19;1739057;82;20992;-81
2022/05/09 00:22:28;;;;;;;8.98;4.92;;;;;;;13.30;67.56;99979.33;1738902;82;21157;-81
2022/05/09 00:24:54;;;;;;;9.70;4.55;;;;;;;13.24;67.44;99974.27;1738876;82;21082;-81
2022/05/09 00:27:21;;;;;;;6.72;4.75;;;;;;;13.20;67.44;99969.56;1738651;82;21336;-82
2022/05/09 00:29:49;;;;;;;10.45;4.58;;;;;;;13.19;67.23;99969.61;1738806;82;21877;-78
2022/05/09 00:32:15;;;;;;;5.28;4.60;;;;;;;13.16;67.32;99961.80;1750156;81;21554;-77
2022/05/09 00:34:42;;;;;;;6.65;4.25;;;;;;;13.14;67.34;99963.65;1723991;83;21649;-75
2022/05/09 00:37:08;;;;;;;7.45;4.10;;;;;;;13.12;67.45;99961.53;1729257;83;21687;-75
2022/05/09 00:39:34;;;;;;;5.17;4.33;;;;;;;13.10;67.58;99963.37;1728903;83;21526;-81
2022/05/09 00:42:09;;;;;;;6.67;4.30;;;;;;;13.05;67.52;99967.97;1728763;83;21061;-80
2022/05/09 00:44:36;;;;;;;;;;;;;;;12.99;67.36;99965.97;1731478;83;21584;-81
2022/05/09 00:47:03;;;;;;;8.23;3.70;;;;;;;12.97;67.31;99978.81;1726286;83;21241;-80
2022/05/09 00:49:34;;;;;;;3.92;3.17;;;;;;;12.91;67.48;99971.11;1728758;83;21085;-77
2022/05/09 00:52:30;;;;;;;4.92;3.22;;;;;;;12.89;67.38;99972.48;1729127;83;22070;-77
2022/05/09 00:55:01;;;;;;;5.55;3.72;;;;;;;12.87;67.42;99974.32;1729035;83;21541;-77
2022/05/09 00:57:46;;;;;;;6.60;3.70;;;;;;;12.82;67.54;99977.13;1728763;83;20987;-75
2022/05/09 01:00:16;;;;;;;3.33;3.00;;;;;;;12.79;67.43;99975.05;1729479;83;22221;-77
2022/05/09 01:02:46;;;;;;;4.53;3.02;;;;;;;12.78;67.43;99974.67;1728956;83;21030;-77
2022/05/09 01:05:13;;;;;;;2.95;2.47;;;;;;;12.78;67.50;99974.67;1728974;83;21109;-77
2022/05/09 01:07:39;;;;;;;5.08;2.87;;;;;;;12.77;67.54;99983.03;1729026;83;21122;-77
2022/05/09 01:10:12;;;;;;;5.05;2.65;;;;;;;12.76;67.68;99981.33;1728931;83;21038;-76
2022/05/09 01:12:39;;;;;;;3.10;2.80;;;;;;;12.75;67.84;99977.42;1729142;83;21865;-77
2022/05/09 01:15:12;;;;;;;4.33;2.95;;;;;;;12.75;67.79;99982.70;1728944;83;21030;-77
2022/05/09 01:17:43;;;;;;;4.95;3.08;;;;;;;12.74;67.88;99983.17;1730470;82;20988;-77
2022/05/09 01:20:09;;;;;;;10.25;3.95;;;;;;;12.74;67.96;99984.92;1755778;81;21082;-76
2022/05/09 01:22:36;;;;;;;12.03;5.65;;;;;;;12.73;68.31;99988.50;1757204;81;21120;-77
2022/05/09 01:25:08;;;;;;;10.25;5.67;;;;;;;12.70;68.61;99989.93;1756925;81;21130;-77
2022/05/09 01:27:40;;;;;;;19.87;9.08;;;;;;;12.67;68.86;99988.71;1757021;81;22197;-76
2022/05/09 01:30:15;;;;;;;28.30;10.68;;;;;;;12.62;69.27;99983.59;1756904;81;21054;-77
2022/05/09 01:32:47;;;;;;;29.00;11.55;;;;;;;12.61;69.45;99993.30;1749543;81;21652;-76
2022/05/09 01:35:34;;;;;;;28.55;11.88;;;;;;;12.60;69.90;99992.02;1756956;81;21033;-77
2022/05/09 01:38:12;;;;;;;23.25;11.40;;;;;;;12.56;70.40;99993.06;1757208;81;21071;-76
2022/05/09 01:40:38;;;;;;;22.10;9.70;;;;;;;12.51;70.76;100003.78;1718996;81;21022;-77
2022/05/09 01:43:05;;;;;;;11.10;6.50;;;;;;;12.48;70.93;100002.55;1756842;81;21116;-77
2022/05/09 01:45:32;;;;;;;10.40;5.35;;;;;;;12.48;71.30;100003.88;1756874;81;21128;-77
2022/05/09 01:50:44;;;;;;;15.85;6.08;;;;;;;12.42;71.62;100004.08;1756958;81;21248;-77
2022/05/09 01:53:11;;;;;;;13.78;5.47;;;;;;;12.42;71.74;100006.28;1756790;81;21057;-77
2022/05/09 01:55:37;;;;;;;11.57;5.53;;;;;;;12.44;71.84;100015.47;1756805;81;21070;-77
2022/05/09 01:58:05;;;;;;;8.20;4.17;;;;;;;12.44;72.19;100020.75;1756912;81;20992;-76
2022/05/09 02:00:32;;;;;;;8.23;4.58;;;;;;;12.43;72.16;100017.69;1757225;81;21572;-77
2022/05/09 02:03:00;;;;;;;17.12;4.58;;;;;;;12.44;72.09;100020.75;1756838;81;21544;-76
2022/05/09 02:05:27;;;;;;;8.83;4.65;;;;;;;12.44;72.24;100023.39;1756689;81;20979;-77
2022/05/09 02:07:54;;;;;;;6.03;4.30;;;;;;;12.44;72.53;100019.42;1757120;81;21084;-76
2022/05/09 02:10:20;;;;;;;5.80;4.28;;;;;;;12.43;72.75;100024.28;1756913;81;21015;-76
2022/05/09 02:12:49;;;;;;;9.00;4.45;;;;;;;12.40;72.85;100024.39;1757004;81;21152;-76
2022/05/09 02:15:16;;;;;;;5.67;4.12;;;;;;;12.38;73.12;100018.30;1757067;81;21221;-77
2022/05/09 02:17:45;;;;;;;7.40;4.25;;;;;;;12.36;73.36;100024.10;1756919;81;21065;-77
2022/05/09 02:20:12;;;;;;;6.90;3.65;;;;;;;12.33;73.37;100038.24;1756949;81;21085;-76
2022/05/09 02:22:40;;;;;;;8.53;4.58;;;;;;;12.32;73.53;100036.97;1757170;81;21003;-76
2022/05/09 02:25:26;;;;;;;10.32;4.70;;;;;;;12.31;73.96;100036.12;1756980;81;21085;-77
2022/05/09 02:27:36;;;;;;;7.55;4.92;;;;;;;12.30;73.96;100034.84;1753169;81;21123;-77
2022/05/09 02:30:05;;;;;;;10.40;5.25;;;;;;;12.28;74.40;100038.00;1756964;81;21065;-77
2022/05/09 02:32:31;;;;;;;12.63;5.50;;;;;;;12.24;74.59;100039.42;1756763;81;21585;-77
2022/05/09 02:34:57;;;;;;;12.37;5.78;;;;;;;12.23;74.69;100040.78;1756998;81;21054;-76
2022/05/09 02:37:24;;;;;;;11.65;5.45;;;;;;;12.24;75.02;100050.44;1762551;80;21497;-76
2022/05/09 02:39:52;;;;;;;13.43;5.33;;;;;;;12.22;75.00;100055.77;1788224;80;21128;-77
2022/05/09 02:42:19;;;;;;;11.12;4.83;;;;;;;12.22;75.20;100055.77;1788170;80;21875;-77
2022/05/09 02:44:45;;;;;;;10.75;5.30;;;;;;;12.22;75.39;100057.08;1788157;80;21070;-77
2022/05/09 02:47:13;;;;;;;11.30;5.55;;;;;;;12.23;75.30;100060.11;1787930;80;21100;-76
2022/05/09 02:49:41;;;;;;;13.00;5.87;;;;;;;12.23;75.53;100061.42;1787976;80;21073;-77
2022/05/09 02:52:07;;;;;;;12.05;5.60;;;;;;;12.23;75.79;100065.84;1788165;80;21203;-77
2022/05/09 02:54:34;;;;;;;15.68;5.87;;;;;;;12.20;75.91;100068.12;1787888;80;21062;-77
2022/05/09 02:57:00;;;;;;;16.37;6.00;;;;;;;12.19;76.23;100069.05;1788299;80;21053;-77
2022/05/09 02:59:28;;;;;;;10.68;5.80;;;;;;;12.14;76.33;100064.37;1787902;80;21045;-77
2022/05/09 03:01:57;;;;;;;7.22;4.53;;;;;;;12.13;76.40;100067.91;1788190;80;21503;-77
2022/05/09 03:04:41;;;;;;;10.00;5.50;;;;;;;12.15;76.52;100074.46;1788635;80;21711;-76
2022/05/09 03:07:15;;;;;;;13.38;6.12;;;;;;;12.17;76.48;100072.63;1787777;80;20974;-76
2022/05/09 03:09:44;;;;;;;14.03;6.45;;;;;;;12.21;76.59;100083.05;1788125;80;21006;-77
2022/05/09 03:12:11;;;;;;;14.90;6.08;;;;;;;12.21;76.67;100088.32;1787933;80;21064;-77
2022/05/09 03:14:38;;;;;;;11.75;6.17;;;;;;;12.22;76.67;100089.17;1788032;80;21037;-76
2022/05/09 03:17:07;;;;;;;16.65;5.92;;;;;;;12.22;76.76;100093.13;1787986;80;21108;-77
2022/05/09 03:19:33;;;;;;;16.62;6.40;;;;;;;12.24;76.62;100093.97;1788118;80;21050;-77
2022/05/09 03:22:00;;;;;;;10.65;6.40;;;;;;;12.26;76.92;100097.41;1788039;80;21022;-77
2022/05/09 03:24:27;;;;;;;12.65;5.60;;;;;;;12.29;77.06;100105.23;1766948;80;21132;-76
2022/05/09 03:26:53;;;;;;;9.83;5.85;;;;;;;12.31;77.23;100098.59;1756794;81;21062;-77
2022/05/09 03:29:20;;;;;;;11.97;5.03;;;;;;;12.32;77.25;100104.26;1756917;81;21176;-76
2022/05/09 03:31:47;;;;;;;10.23;4.92;;;;;;;12.33;77.25;100102.04;1756669;81;21110;-76
2022/05/09 03:34:15;;;;;;;9.45;5.20;;;;;;;12.34;77.48;100106.38;1756881;81;21505;-77
2022/05/09 03:36:41;;;;;;;8.50;4.92;;;;;;;12.32;77.54;100110.86;1756696;81;21073;-76
2022/05/09 03:39:08;;;;;;;7.65;4.60;;;;;;;12.34;77.57;100114.30;1756925;81;21042;-77
2022/05/09 03:41:37;;;;;;;9.78;4.40;;;;;;;12.35;77.51;100114.72;1756935;81;21227;-77
2022/05/09 03:44:05;;;;;;;6.92;4.12;;;;;;;12.39;77.42;100111.94;1757266;81;21117;-77
2022/05/09 03:46:32;;;;;;;7.85;4.62;;;;;;;12.42;77.25;100112.28;1756882;81;20990;-77
2022/05/09 03:49:02;;;;;;;12.00;4.00;;;;;;;12.44;77.21;100117.92;1756608;81;21549;-77
2022/05/09 03:51:30;;;;;;;6.15;3.80;;;;;;;12.45;77.07;100125.37;1756907;81;21054;-76
2022/05/09 03:53:56;;;;;;;6.20;3.67;;;;;;;12.44;77.09;100126.31;1756892;81;21113;-76
2022/05/09 03:56:23;;;;;;;4.58;3.67;;;;;;;12.46;77.25;100124.48;1757134;81;21058;-77
2022/05/09 03:58:49;;;;;;;5.33;3.40;;;;;;;12.50;77.32;100133.16;1756352;81;21096;-77
2022/05/09 04:01:15;;;;;;;4.47;3.37;;;;;;;12.50;77.35;100130.52;1757285;81;20964;-78
2022/05/09 04:03:43;;;;;;;5.30;2.85;;;;;;;12.52;77.13;100138.77;1756859;81;21163;-76
2022/05/09 04:06:10;;;;;;;5.12;2.70;;;;;;;12.52;77.11;100134.81;1757353;81;21286;-74
2022/05/09 04:08:36;;;;;;;3.98;2.75;;;;;;;12.55;76.91;100140.00;1759797;81;21001;-75
2022/05/09 04:11:02;;;;;;;4.20;2.58;;;;;;;12.62;76.75;100138.91;1760026;81;21022;-75
2022/05/09 04:13:29;;;;;;;4.95;2.58;;;;;;;12.67;76.64;100140.52;1759925;81;21014;-74
2022/05/09 04:18:42;;;;;;;3.67;2.50;;;;;;;12.78;76.39;100151.59;1759923;81;21134;-75
2022/05/09 04:21:10;;;;;;;3.35;2.45;;;;;;;12.82;76.05;100151.41;1759913;81;21081;-75
2022/05/09 04:23:38;;;;;;;4.28;2.42;;;;;;;12.84;75.78;100159.28;1736820;81;21144;-75
2022/05/09 04:26:07;;;;;;;2.62;2.42;;;;;;;12.82;75.58;100161.12;1759840;81;21603;-75
2022/05/09 04:28:34;;;;;;;3.62;2.33;;;;;;;12.83;75.25;100162.86;1760051;81;21607;-75
2022/05/09 04:31:00;;;;;;;2.40;2.20;;;;;;;12.82;75.29;100158.02;1764186;80;21553;-75
2022/05/09 04:33:27;;;;;;;2.27;2.10;;;;;;;12.83;74.83;100164.19;1724373;82;21545;-75
2022/05/09 04:35:54;;;;;;;3.02;2.65;;;;;;;12.82;74.66;100167.72;1759858;81;21069;-75
2022/05/09 04:38:22;;;;;;;2.87;2.42;;;;;;;12.82;74.54;100165.94;1759799;81;21592;-75
2022/05/09 04:40:51;;;;;;;2.50;2.40;;;;;;;12.83;74.35;100172.11;1724128;83;21063;-75
2022/05/09 04:43:23;;;;;;;4.05;2.30;;;;;;;12.86;74.26;100173.33;1760034;81;21778;-74
2022/05/09 04:45:50;;;;;;;2.75;1.95;;;;;;;12.89;73.92;100179.80;1760082;81;21569;-74
2022/05/09 04:48:18;;;;;;;3.67;2.20;;;;;;;12.93;73.80;100187.19;1759830;81;21572;-75
2022/05/09 04:50:45;;;;;;;3.55;3.02;;;;;;;12.96;73.15;100185.30;1723863;83;21055;-76
2022/05/09 04:53:13;;;;;;;4.53;2.42;;;;;;;12.97;73.19;100182.20;1723996;82;21059;-75
2022/05/09 04:55:40;;;;;;;2.67;2.30;;;;;;;13.03;73.41;100181.11;1723892;82;21136;-75
2022/05/09 04:58:07;;;;;;;3.47;2.37;;;;;;;13.13;73.23;100183.41;1724373;83;21118;-75
2022/05/09 05:00:34;;;;;;;2.77;2.58;;;;;;;13.25;72.87;100181.27;1711264;83;21079;-74
2022/05/09 05:03:00;;;;;;;2.70;2.50;;;;;;;13.33;72.71;100186.71;1759853;81;21105;-75
2022/05/09 05:05:26;;;;;;;3.30;2.22;;;;;;;13.40;72.02;100187.80;1760174;81;21001;-76
2022/05/09 05:07:54;;;;;;;7.92;2.75;;;;;;;13.46;72.10;100192.87;1717830;83;21164;-75
2022/05/09 05:10:21;;;;;;;4.15;2.75;;;;;;;13.57;71.91;100199.97;1716544;82;21075;-76
2022/05/09 05:12:47;;;;;;;3.08;2.45;;;;;;;13.57;71.43;100202.61;1716923;83;21157;-75
2022/05/09 05:15:15;;;;;;;3.35;2.47;;;;;;;13.57;70.95;100203.94;1754629;81;21070;-75
2022/05/09 05:17:43;;;;;;;3.20;2.90;;;;;;;13.58;71.45;100206.96;1754529;81;21564;-75
2022/05/09 05:20:13;;;;;;;10.75;2.80;;;;;;;13.58;71.73;100209.61;1716834;83;21143;-76
2022/05/09 05:22:42;;;;;;;3.00;2.65;;;;;;;13.59;70.78;100206.06;1716238;82;21534;-75
2022/05/09 05:25:11;;;;;;;2.05;1.95;;;;;;;13.58;70.13;100208.28;1754814;81;21576;-76
2022/05/09 05:27:38;;;;;;;2.05;1.92;;;;;;;13.59;69.72;100217.95;1754260;81;21065;-76
2022/05/09 05:30:05;;;;;;;2.98;2.00;;;;;;;13.66;69.57;100215.48;1755259;81;20994;-75
2022/05/09 05:32:36;;;;;;;2.37;2.17;;;;;;;13.73;69.04;100220.98;1754769;81;21200;-74
2022/05/09 05:35:05;;;;;;;2.17;1.90;;;;;;;13.82;67.89;100221.53;1755183;81;21041;-76
2022/05/09 05:37:33;;;;;;;2.12;1.92;;;;;;;13.90;67.42;100224.77;1754731;81;21057;-76
2022/05/09 05:40:03;;;;;;;2.50;1.80;;;;;;;13.98;66.93;100214.77;1754773;81;21663;-76
2022/05/09 05:42:29;;;;;;;2.15;1.95;;;;;;;14.08;66.24;100221.43;1754860;81;21611;-75
2022/05/09 05:44:56;;;;;;;3.77;2.22;;;;;;;14.20;66.21;100220.57;1754754;81;21758;-75
2022/05/09 05:47:23;;;;;;;3.02;2.22;;;;;;;14.33;66.08;100232.41;1754960;81;21016;-75
2022/05/09 05:49:50;;;;;;;3.05;1.90;;;;;;;14.42;65.47;100222.77;1754734;81;21237;-75
2022/05/09 05:52:17;;;;;;;2.05;1.80;;;;;;;14.43;64.37;100229.80;1754697;81;21035;-75
2022/05/09 05:54:45;;;;;;;2.20;1.80;;;;;;;14.45;64.38;100233.25;1754790;81;21042;-75
2022/05/09 05:57:22;;;;;;;4.35;2.00;;;;;;;14.50;63.96;100229.11;1754850;81;21118;-75
2022/05/09 05:59:52;;;;;;;1.87;1.77;;;;;;;14.53;63.22;100239.58;1754503;81;21548;-76
2022/05/09 06:02:19;;;;;;;2.20;1.70;;;;;;;14.54;62.52;100236.46;1753985;81;21485;-75
2022/05/09 06:04:48;;;;;;;4.55;2.30;;;;;;;14.50;63.03;100248.97;1755110;81;21106;-75
2022/05/09 06:07:14;;;;;;;7.42;2.17;;;;;;;14.51;63.48;100252.03;1751160;81;21608;-75
2022/05/09 06:09:41;;;;;;;3.67;2.05;;;;;;;14.43;63.73;100248.34;1746775;82;21109;-75
2022/05/09 06:12:08;;;;;;;3.75;2.05;;;;;;;14.33;63.79;100259.36;1746750;82;21077;-75
2022/05/09 06:14:37;;;;;;;6.70;2.08;;;;;;;14.28;63.97;100255.55;1738901;82;21038;-74
2022/05/09 06:17:05;;;;;;;4.58;1.80;;;;;;;14.28;63.57;100263.02;1739405;82;21027;-75
2022/05/09 06:19:32;;;;;;;1.77;1.67;;;;;;;14.26;62.26;100258.26;1699097;84;21049;-75
2022/05/09 06:21:59;;;;;;;1.80;1.57;;;;;;;14.19;60.94;100253.23;1699040;83;21090;-76
2022/05/09 06:24:26;;;;;;;2.95;1.77;;;;;;;14.09;60.59;100267.30;1698905;84;21084;-76
2022/05/09 06:26:53;;;;;;;2.05;1.80;;;;;;;14.02;60.86;100269.31;1699205;84;21084;-76
2022/05/09 06:29:19;;;;;;;2.40;1.75;;;;;;;13.99;61.19;100273.39;1698511;84;21080;-75
2022/05/09 06:31:46;;;;;;;4.08;2.05;;;;;;;13.98;61.26;100269.47;1698928;83;21057;-75
2022/05/09 06:34:13;;;;;;;4.40;1.80;;;;;;;13.99;61.25;100268.09;1698806;84;21182;-74
2022/05/09 06:36:41;;;;;;;2.95;1.70;;;;;;;13.98;60.88;100269.00;1698670;84;21093;-76
2022/05/09 06:39:08;;;;;;;1.57;1.47;;;;;;;13.91;60.63;100262.22;1699995;81;21579;-75
2022/05/09 06:41:35;;;;;;;1.45;1.35;;;;;;;13.89;60.11;100275.50;1723014;83;21062;-75
2022/05/09 06:44:01;;;;;;;2.15;1.50;;;;;;;13.88;59.76;100274.23;1722944;83;21499;-74
2022/05/09 06:46:28;;;;;;;3.95;1.67;;;;;;;13.87;60.24;100277.34;1722653;82;22280;-74
2022/05/09 06:48:54;;;;;;;1.70;1.60;;;;;;;13.86;59.81;100273.42;1722353;83;21506;-74
2022/05/09 06:51:22;;;;;;;3.50;1.47;;;;;;;13.88;59.47;100272.91;1722487;83;21552;-76
2022/05/09 06:53:51;;;;;;;3.08;1.80;;;;;;;13.91;58.56;100274.13;1722430;83;21125;-74
2022/05/09 06:56:19;;;;;;;3.35;1.65;;;;;;;13.92;58.14;100279.83;1722766;83;21062;-76
2022/05/09 06:58:46;;;;;;;4.72;1.65;;;;;;;13.96;58.00;100286.72;1722713;83;21487;-76
2022/05/09 07:01:16;;;;;;;2.65;1.30;;;;;;;13.98;57.85;100282.23;1722575;82;21058;-75
2022/05/09 07:03:43;;;;;;;3.02;1.50;;;;;;;14.06;57.66;100281.96;1722905;82;21169;-76
2022/05/09 07:06:10;;;;;;;1.65;1.50;;;;;;;14.12;57.55;100289.22;1722461;83;21070;-75
2022/05/09 07:08:37;;;;;;;2.92;1.45;;;;;;;14.17;56.07;100286.84;1710423;83;20980;-75
2022/05/09 07:11:05;;;;;;;1.72;1.60;;;;;;;14.21;56.04;100289.80;1746086;82;21113;-75
2022/05/09 07:13:31;;;;;;;2.25;1.30;;;;;;;14.27;55.49;100291.76;1726640;83;20987;-75
2022/05/09 07:15:59;;;;;;;5.95;2.05;;;;;;;14.35;54.92;100287.95;1726627;83;21125;-75
2022/05/09 07:18:28;;;;;;;2.47;1.80;;;;;;;14.47;55.21;100293.66;1726819;83;21133;-76
2022/05/09 07:20:56;;;;;;;1.82;1.40;;;;;;;14.64;55.36;100298.77;1727050;83;21118;-75
2022/05/09 07:23:22;;;;;;;3.85;1.37;;;;;;;14.78;54.28;100298.25;1731565;82;21189;-75
2022/05/09 07:25:51;;;;;;;2.65;1.35;;;;;;;14.86;52.83;100304.08;1733050;82;21056;-74
2022/05/09 07:28:21;;;;;;;2.35;1.15;;;;;;;14.88;52.67;100306.23;1749864;81;21083;-75
2022/05/09 07:30:48;;;;;;;3.22;1.35;;;;;;;14.85;52.07;100300.58;1750020;82;22028;-75
2022/05/09 07:33:17;;;;;;;3.17;1.20;;;;;;;14.91;52.18;100307.87;1750075;82;21479;-75
2022/05/09 07:35:44;;;;;;;1.62;1.20;;;;;;;14.95;51.45;100312.15;1749820;82;21148;-75
2022/05/09 07:38:11;;;;;;;2.35;1.62;;;;;;;15.02;51.54;100310.97;1750185;82;21063;-75
2022/05/09 07:40:40;;;;;;;1.35;1.10;;;;;;;15.14;51.14;100312.26;1749809;82;21099;-76
2022/05/09 07:43:20;;;;;;;5.45;1.40;;;;;;;15.29;50.95;100303.67;1750099;82;21059;-75
2022/05/09 07:45:47;;;;;;;4.75;1.30;;;;;;;15.42;49.68;100314.64;1749698;81;20981;-76
2022/05/09 07:48:14;;;;;;;3.02;0.90;;;;;;;15.49;48.46;100311.27;1750476;82;21641;-75
2022/05/09 07:50:41;;;;;;;3.65;1.22;;;;;;;15.54;48.72;100316.77;1750034;82;21503;-75
2022/05/09 07:53:12;;;;;;;1.22;0.95;;;;;;;15.64;47.12;100319.04;1750026;82;21106;-75
2022/05/09 07:55:40;;;;;;;4.05;0.90;;;;;;;15.71;47.28;100315.19;1750083;81;21051;-74
2022/05/09 07:58:09;;;;;;;4.08;1.00;;;;;;;15.86;47.73;100321.19;1750202;82;21169;-75
2022/05/09 08:00:37;;;;;;;6.25;1.10;;;;;;;16.02;46.71;100327.14;1750420;82;21152;-76
2022/05/09 08:03:05;;;;;;;4.00;1.37;;;;;;;16.16;46.52;100316.78;1749981;82;21587;-74
2022/05/09 08:05:33;;;;;;;2.58;1.20;;;;;;;16.32;45.97;100323.13;1750202;82;21035;-81
2022/05/09 08:07:59;;;;;;;3.27;1.10;;;;;;;16.41;44.82;100321.84;1752388;81;21062;-82
2022/05/09 08:10:27;;;;;;;1.98;1.00;;;;;;;16.47;44.55;100324.19;1755337;81;21376;-82
2022/05/09 08:12:54;;;;;;;2.25;1.07;;;;;;;16.55;43.78;100324.33;1755321;81;21522;-82
2022/05/09 08:15:21;;;;;;;2.25;1.17;;;;;;;16.64;44.67;100331.85;1755142;81;21051;-81
2022/05/09 08:17:49;;;;;;;1.17;1.07;;;;;;;16.67;43.21;100321.09;1755608;81;21050;-81
2022/05/09 08:20:17;;;;;;;1.12;0.90;;;;;;;16.65;43.63;100333.59;1755352;81;21054;-75
2022/05/09 08:22:49;;;;;;;2.58;1.22;;;;;;;16.72;43.77;100323.91;1755583;81;21039;-77
2022/05/09 08:25:14;;;;;;;2.22;0.90;;;;;;;16.83;43.58;100331.39;1758452;81;21575;-77
2022/05/09 08:27:41;;;;;;;4.83;1.10;;;;;;;16.95;42.63;100333.97;1724277;82;20971;-75
2022/05/09 08:30:09;;;;;;;3.15;1.17;;;;;;;16.96;40.92;100329.02;1724457;83;21586;-76
2022/05/09 08:32:38;;;;;;;1.82;1.00;;;;;;;16.91;40.94;100333.70;1723254;83;21523;-77
2022/05/09 08:35:08;;;;;;;2.30;1.20;;;;;;;16.84;42.27;100330.92;1760196;81;21105;-77
2022/05/09 08:37:35;;;;;;;4.37;1.05;;;;;;;16.86;41.20;100338.37;1760059;81;21197;-76
2022/05/09 08:40:02;;;;;;;9.83;1.27;;;;;;;16.72;41.01;100337.20;1724218;83;22053;-76
2022/05/09 08:42:46;;;;;;;7.83;2.75;;;;;;;16.72;41.09;100329.22;1759987;81;21046;-75
2022/05/09 08:45:27;;;;;;;1.42;1.00;;;;;;;16.84;43.05;100334.46;1760000;81;21105;-73
2022/05/09 08:48:17;;;;;;;1.45;0.80;;;;;;;17.02;41.08;100331.39;1724687;83;21083;-76
2022/05/09 08:51:13;;;;;;;2.40;1.07;;;;;;;17.02;39.95;100344.69;1760092;81;21096;-77
2022/05/09 08:53:43;;;;;;;2.92;0.88;;;;;;;17.04;40.98;100341.48;1759806;81;21077;-76
2022/05/09 08:56:13;;;;;;;3.35;1.00;;;;;;;17.15;39.65;100334.33;1724214;83;21090;-77
2022/05/09 08:58:56;;;;;;;3.75;1.00;;;;;;;17.26;39.64;100350.63;1760002;81;21616;-76
2022/05/09 09:01:43;;;;;;;4.17;1.00;;;;;;;17.33;37.48;100349.86;1760101;81;21069;-76
2022/05/09 09:04:23;;;;;;;3.92;1.00;;;;;;;17.35;38.30;100354.63;1723744;82;21121;-77
2022/05/09 09:07:11;;;;;;;3.65;1.20;;;;;;;17.41;38.61;100347.66;1724152;82;21071;-76
2022/05/09 09:10:08;;;;;;;2.00;0.88;;;;;;;17.51;38.02;100356.52;1757008;81;21132;-76
2022/05/09 09:13:28;;;;;;;3.83;1.17;;;;;;;17.61;38.44;100351.12;1754937;81;21057;-76
2022/05/09 09:16:22;;;;;;;6.33;1.20;;;;;;;17.72;36.45;100353.23;1750308;82;21018;-76
2022/05/09 09:19:27;;;;;;;1.17;1.05;;;;;;;17.64;35.10;100349.17;1750795;81;21567;-76
2022/05/09 09:22:33;;;;;;;2.25;0.93;;;;;;;17.50;35.73;100362.77;1750570;82;21505;-76
2022/05/09 09:25:20;;;;;;;1.55;0.80;;;;;;;17.54;36.57;100353.72;1750689;81;21057;-77
2022/05/09 09:27:49;;;;;;;2.37;1.10;;;;;;;17.72;37.04;100354.12;1750487;82;21066;-77
2022/05/09 09:30:21;;;;;;;0.75;0.70;;;;;;;17.90;36.24;100358.13;1750940;81;21570;-76
2022/05/09 09:33:01;;;;;;;2.47;0.90;;;;;;;18.03;35.17;100355.22;1750740;82;21123;-76
2022/05/09 09:36:00;;;;;;;1.50;1.22;;;;;;;18.13;34.73;100359.12;1750672;81;21065;-76
2022/05/09 09:38:42;;;;;;;0.90;0.90;;;;;;;18.26;35.00;100351.83;1750253;81;21062;-76
2022/05/09 09:41:25;;;;;;;1.25;1.02;;;;;;;18.39;34.98;100352.87;1745194;81;21108;-76
2022/05/09 09:44:09;;;;;;;1.10;0.68;;;;;;;18.49;33.20;100353.23;1750312;82;21124;-76
2022/05/09 09:47:12;;;;;;;5.35;0.90;;;;;;;18.38;32.94;100359.16;1751000;81;21771;-76
2022/05/09 09:49:42;;;;;;;2.47;0.90;;;;;;;18.31;32.64;100361.29;1750387;82;21093;-76
2022/05/09 09:52:31;;;;;;;5.58;1.40;;;;;;;18.38;33.22;100352.02;1750659;81;21579;-76
2022/05/09 09:55:08;;;;;;;2.20;1.00;;;;;;;18.48;32.87;100354.20;1750649;82;21054;-76
2022/05/09 09:57:37;;;;;;;1.60;0.80;;;;;;;18.53;32.10;100356.99;1750695;82;21054;-77
2022/05/09 10:00:30;;;;;;;7.40;1.00;;;;;;;18.57;32.42;100351.02;1750581;81;21130;-77
2022/05/09 10:03:18;;;;;;;4.92;1.92;;;;;;;18.62;31.44;100356.11;1750311;82;21560;-76
2022/05/09 10:05:45;;;;;;;2.52;1.80;;;;;;;18.58;29.82;100363.41;1750744;81;21104;-77
2022/05/09 10:08:34;;;;;;;3.35;1.10;;;;;;;18.42;30.03;100362.03;1750673;81;21588;-73
2022/05/09 10:11:15;;;;;;;1.35;0.65;;;;;;;18.37;30.72;100361.42;1750542;82;20943;-76
2022/05/09 10:13:47;;;;;;;1.80;0.62;;;;;;;18.42;29.44;100355.37;1749470;82;22228;-75
2022/05/09 10:16:47;;;;;;;2.25;0.70;;;;;;;18.36;28.41;100355.72;1750800;81;21078;-77
2022/05/09 10:19:29;;;;;;;1.25;0.85;;;;;;;18.30;28.29;100354.70;1750507;82;21093;-76
2022/05/09 10:24:52;;;;;;;4.62;1.10;;;;;;;18.54;28.08;100358.73;1750235;82;21007;-76
2022/05/09 10:27:27;;;;;;;3.90;1.10;;;;;;;18.65;28.49;100359.95;1750668;81;21089;-77
2022/05/09 10:29:56;;;;;;;;;;;;;;;18.77;28.90;100357.08;1752902;82;21042;-77
2022/05/09 10:33:01;;;;;;;2.27;1.02;;;;;;;18.91;29.23;100351.40;1750020;81;20213;-76
2022/05/09 10:35:38;;;;;;;2.40;0.80;;;;;;;19.05;28.12;100359.09;1734599;81;21090;-76
2022/05/09 10:38:17;;;;;;;1.32;0.90;;;;;;;19.15;28.14;100349.63;1708928;82;21538;-76
2022/05/09 10:40:54;;;;;;;5.33;0.62;;;;;;;19.21;27.36;100352.41;1756948;81;21226;-76
2022/05/09 10:43:31;;;;;;;1.25;0.50;;;;;;;19.27;25.75;100344.91;1757236;81;21077;-77
2022/05/09 10:45:57;;;;;;;3.37;0.75;;;;;;;19.30;24.86;100350.56;1725363;83;22316;-76
2022/05/09 10:48:48;;;;;;;2.80;0.62;;;;;;;19.27;23.44;100344.91;1757018;81;21948;-74
2022/05/09 10:51:21;;;;;;;1.47;0.60;;;;;;;19.16;22.81;100350.47;1757024;81;21046;-75
2022/05/09 10:53:57;;;;;;;0.93;0.62;;;;;;;18.94;23.13;100351.20;1725793;82;21110;-75
2022/05/09 10:56:27;;;;;;;;;;;;;;;18.81;23.58;100348.83;1759515;81;21037;-76
2022/05/09 10:59:07;;;;;;;3.90;0.80;;;;;;;18.81;23.19;100348.83;1757586;81;20198;-76
2022/05/09 11:01:56;;;;;;;1.52;0.50;;;;;;;18.83;24.23;100354.96;1756874;81;21073;-76
2022/05/09 11:04:24;;;;;;;0.72;0.50;;;;;;;18.99;24.48;100347.43;1756637;81;21585;-76
2022/05/09 11:07:19;;;;;;;0.50;0.50;;;;;;;19.16;24.73;100350.47;1725395;83;21124;-75
2022/05/09 11:10:25;;;;;;;2.85;0.70;;;;;;;19.27;23.91;100351.58;1756940;81;21041;-73
2022/05/09 11:13:20;;;;;;;;;;;;;;;19.37;24.38;100345.72;1759465;81;21635;-75
2022/05/09 11:16:33;;;;;;;2.45;0.90;;;;;;;19.49;24.49;100343.18;1725617;82;20485;-74
2022/05/09 11:19:40;;;;;;;3.92;0.60;;;;;;;19.67;23.99;100351.92;1709796;83;21609;-75
2022/05/09 11:22:24;;;;;;;0.93;0.60;;;;;;;19.72;24.53;100352.11;1694573;83;21177;-75
2022/05/09 11:25:12;;;;;;;;;;;;;;;19.80;23.41;100346.77;1786328;80;20986;-76
2022/05/09 11:27:50;;;;;;;3.30;0.70;;;;;;;19.72;22.19;100343.66;1787638;80;20191;-75
2022/05/09 11:30:31;;;;;;;2.25;0.70;;;;;;;19.60;23.30;100352.36;1787709;80;21029;-76
2022/05/09 11:33:20;;;;;;;1.92;0.75;;;;;;;19.70;22.92;100328.66;1788099;80;21639;-74
2022/05/09 11:35:48;;;;;;;0.45;0.45;;;;;;;19.46;23.50;100349.18;1788012;80;21135;-75
2022/05/09 11:39:00;;;;;;;2.20;0.70;;;;;;;19.39;22.94;100342.00;1788062;80;21472;-74
2022/05/09 11:41:31;;;;;;;6.97;1.40;;;;;;;19.41;22.35;100337.42;1788165;80;21114;-75
2022/05/09 11:44:14;;;;;;;4.03;0.70;;;;;;;19.31;22.79;100349.10;1788318;80;21067;-74
2022/05/09 11:47:17;;;;;;;0.98;0.50;;;;;;;19.33;23.20;100344.16;1788155;80;21060;-74
2022/05/09 11:50:33;;;;;;;2.05;0.50;;;;;;;19.34;22.68;100339.23;1786855;80;21143;-74
2022/05/09 11:53:00;;;;;;;1.00;0.40;;;;;;;19.40;21.40;100342.85;1745062;81;20956;-74
2022/05/09 11:55:27;;;;;;;1.05;0.68;;;;;;;19.47;21.06;100346.91;1745056;82;21102;-75
2022/05/09 11:57:59;;;;;;;4.80;0.80;;;;;;;19.49;21.94;100345.00;1768649;80;21036;-74